sensor_id;sensor_type;location;lat;lon;timestamp;P1;durP1;ratioP1;P2;durP2;ratioP2
38683;SDS011;24910;53.248;-6.134;2023-02-08T00:02:14;37.08;;;16.20;;
38683;SDS011;24910;53.248;-6.134;2023-02-08T00:04:43;32.60;;;14.10;;
38683;SDS011;24910;53.248;-6.134;2023-02-08T00:07:14;24.40;;;11.73;;
38683;SDS011;24910;53.248;-6.134;2023-02-08T00:09:43;18.77;;;9.27;;
38683;SDS011;24910;53.248;-6.134;2023-02-08T00:12:12;17.00;;;7.95;;
38683;SDS011;24910;53.248;-6.134;2023-02-08T00:14:41;16.35;;;6.53;;
38683;SDS011;24910;53.248;-6.134;2023-02-08T00:17:10;17.42;;;7.35;;
38683;SDS011;24910;53.248;-6.134;2023-02-08T00:19:40;17.70;;;7.25;;
38683;SDS011;24910;53.248;-6.134;2023-02-08T00:22:09;18.95;;;7.72;;
38683;SDS011;24910;53.248;-6.134;2023-02-08T00:24:39;19.35;;;7.72;;
38683;SDS011;24910;53.248;-6.134;2023-02-08T00:27:08;19.52;;;8.20;;
38683;SDS011;24910;53.248;-6.134;2023-02-08T00:29:37;16.98;;;8.02;;
38683;SDS011;24910;53.248;-6.134;2023-02-08T00:32:06;15.68;;;7.07;;
38683;SDS011;24910;53.248;-6.134;2023-02-08T00:34:36;13.70;;;6.65;;
38683;SDS011;24910;53.248;-6.134;2023-02-08T00:37:06;18.48;;;7.40;;
38683;SDS011;24910;53.248;-6.134;2023-02-08T00:39:35;16.08;;;7.45;;
38683;SDS011;24910;53.248;-6.134;2023-02-08T00:42:05;16.23;;;6.85;;
38683;SDS011;24910;53.248;-6.134;2023-02-08T00:44:34;18.05;;;7.90;;
38683;SDS011;24910;53.248;-6.134;2023-02-08T00:47:03;14.85;;;6.10;;
38683;SDS011;24910;53.248;-6.134;2023-02-08T00:49:32;12.00;;;4.03;;
38683;SDS011;24910;53.248;-6.134;2023-02-08T00:52:02;11.70;;;3.53;;
38683;SDS011;24910;53.248;-6.134;2023-02-08T00:54:31;10.40;;;3.67;;
38683;SDS011;24910;53.248;-6.134;2023-02-08T00:57:00;11.85;;;3.33;;
38683;SDS011;24910;53.248;-6.134;2023-02-08T00:59:32;11.65;;;3.83;;
38683;SDS011;24910;53.248;-6.134;2023-02-08T01:02:01;12.40;;;4.25;;
38683;SDS011;24910;53.248;-6.134;2023-02-08T01:04:30;9.63;;;3.97;;
38683;SDS011;24910;53.248;-6.134;2023-02-08T01:06:59;9.55;;;3.38;;
38683;SDS011;24910;53.248;-6.134;2023-02-08T01:09:30;11.27;;;3.50;;
38683;SDS011;24910;53.248;-6.134;2023-02-08T01:11:59;10.43;;;3.38;;
38683;SDS011;24910;53.248;-6.134;2023-02-08T01:14:29;12.85;;;3.58;;
38683;SDS011;24910;53.248;-6.134;2023-02-08T01:16:59;8.07;;;3.50;;
38683;SDS011;24910;53.248;-6.134;2023-02-08T01:19:29;7.03;;;2.88;;
38683;SDS011;24910;53.248;-6.134;2023-02-08T01:22:00;8.65;;;2.78;;
38683;SDS011;24910;53.248;-6.134;2023-02-08T01:24:29;9.75;;;3.53;;
38683;SDS011;24910;53.248;-6.134;2023-02-08T01:26:58;7.75;;;3.20;;
38683;SDS011;24910;53.248;-6.134;2023-02-08T01:29:29;9.75;;;3.83;;
38683;SDS011;24910;53.248;-6.134;2023-02-08T01:31:59;9.60;;;3.15;;
38683;SDS011;24910;53.248;-6.134;2023-02-08T01:34:28;14.35;;;3.75;;
38683;SDS011;24910;53.248;-6.134;2023-02-08T01:36:57;12.23;;;3.60;;
38683;SDS011;24910;53.248;-6.134;2023-02-08T01:39:26;10.93;;;3.40;;
38683;SDS011;24910;53.248;-6.134;2023-02-08T01:41:55;7.25;;;3.55;;
38683;SDS011;24910;53.248;-6.134;2023-02-08T01:47:46;7.90;;;3.58;;
38683;SDS011;24910;53.248;-6.134;2023-02-08T01:50:19;10.20;;;3.25;;
38683;SDS011;24910;53.248;-6.134;2023-02-08T01:52:51;7.85;;;3.33;;
38683;SDS011;24910;53.248;-6.134;2023-02-08T01:55:21;10.43;;;3.60;;
38683;SDS011;24910;53.248;-6.134;2023-02-08T01:57:54;11.35;;;3.42;;
38683;SDS011;24910;53.248;-6.134;2023-02-08T02:00:26;8.93;;;3.20;;
38683;SDS011;24910;53.248;-6.134;2023-02-08T02:02:56;8.35;;;3.17;;
38683;SDS011;24910;53.248;-6.134;2023-02-08T02:05:31;13.18;;;3.60;;
38683;SDS011;24910;53.248;-6.134;2023-02-08T02:08:04;7.88;;;3.08;;
38683;SDS011;24910;53.248;-6.134;2023-02-08T02:10:34;11.18;;;2.70;;
38683;SDS011;24910;53.248;-6.134;2023-02-08T02:13:06;12.30;;;2.53;;
38683;SDS011;24910;53.248;-6.134;2023-02-08T02:15:41;12.07;;;2.83;;
38683;SDS011;24910;53.248;-6.134;2023-02-08T02:18:14;14.32;;;2.85;;
38683;SDS011;24910;53.248;-6.134;2023-02-08T02:20:52;11.45;;;2.95;;
38683;SDS011;24910;53.248;-6.134;2023-02-08T02:23:42;11.15;;;3.20;;
38683;SDS011;24910;53.248;-6.134;2023-02-08T02:32:59;12.32;;;3.05;;
38683;SDS011;24910;53.248;-6.134;2023-02-08T02:35:57;13.88;;;3.58;;
38683;SDS011;24910;53.248;-6.134;2023-02-08T02:38:36;12.57;;;5.07;;
38683;SDS011;24910;53.248;-6.134;2023-02-08T02:41:18;19.45;;;6.00;;
38683;SDS011;24910;53.248;-6.134;2023-02-08T02:44:15;17.42;;;6.90;;
38683;SDS011;24910;53.248;-6.134;2023-02-08T02:46:54;25.92;;;12.85;;
38683;SDS011;24910;53.248;-6.134;2023-02-08T02:49:30;39.08;;;16.27;;
38683;SDS011;24910;53.248;-6.134;2023-02-08T02:52:07;44.95;;;20.55;;
38683;SDS011;24910;53.248;-6.134;2023-02-08T02:54:40;54.85;;;23.40;;
38683;SDS011;24910;53.248;-6.134;2023-02-08T02:57:15;51.22;;;22.75;;
38683;SDS011;24910;53.248;-6.134;2023-02-08T02:59:48;48.20;;;22.67;;
38683;SDS011;24910;53.248;-6.134;2023-02-08T03:02:17;48.83;;;22.75;;
38683;SDS011;24910;53.248;-6.134;2023-02-08T03:04:48;49.80;;;22.40;;
38683;SDS011;24910;53.248;-6.134;2023-02-08T03:10:28;34.63;;;14.35;;
38683;SDS011;24910;53.248;-6.134;2023-02-08T03:13:24;32.25;;;13.57;;
38683;SDS011;24910;53.248;-6.134;2023-02-08T03:16:00;41.00;;;17.88;;
38683;SDS011;24910;53.248;-6.134;2023-02-08T03:18:39;48.00;;;18.17;;
38683;SDS011;24910;53.248;-6.134;2023-02-08T03:21:17;38.33;;;17.08;;
38683;SDS011;24910;53.248;-6.134;2023-02-08T03:23:54;41.40;;;17.83;;
38683;SDS011;24910;53.248;-6.134;2023-02-08T03:26:30;44.15;;;20.35;;
38683;SDS011;24910;53.248;-6.134;2023-02-08T03:29:05;52.17;;;23.75;;
38683;SDS011;24910;53.248;-6.134;2023-02-08T03:31:40;59.35;;;26.27;;
38683;SDS011;24910;53.248;-6.134;2023-02-08T03:34:14;45.25;;;20.58;;
38683;SDS011;24910;53.248;-6.134;2023-02-08T03:36:48;43.45;;;19.73;;
38683;SDS011;24910;53.248;-6.134;2023-02-08T03:39:25;44.70;;;18.33;;
38683;SDS011;24910;53.248;-6.134;2023-02-08T03:41:57;39.38;;;15.35;;
38683;SDS011;24910;53.248;-6.134;2023-02-08T03:44:30;31.20;;;11.07;;
38683;SDS011;24910;53.248;-6.134;2023-02-08T03:47:03;24.75;;;10.02;;
38683;SDS011;24910;53.248;-6.134;2023-02-08T03:49:39;25.85;;;9.93;;
38683;SDS011;24910;53.248;-6.134;2023-02-08T03:52:11;29.38;;;9.95;;
38683;SDS011;24910;53.248;-6.134;2023-02-08T03:54:42;24.38;;;9.68;;
38683;SDS011;24910;53.248;-6.134;2023-02-08T03:57:17;24.60;;;9.13;;
38683;SDS011;24910;53.248;-6.134;2023-02-08T03:59:54;21.98;;;7.03;;
38683;SDS011;24910;53.248;-6.134;2023-02-08T04:02:26;18.90;;;5.88;;
38683;SDS011;24910;53.248;-6.134;2023-02-08T04:04:58;19.48;;;4.97;;
38683;SDS011;24910;53.248;-6.134;2023-02-08T04:07:30;19.08;;;5.43;;
38683;SDS011;24910;53.248;-6.134;2023-02-08T04:10:00;14.68;;;5.38;;
38683;SDS011;24910;53.248;-6.134;2023-02-08T04:12:30;12.95;;;4.40;;
38683;SDS011;24910;53.248;-6.134;2023-02-08T04:14:59;18.55;;;3.88;;
38683;SDS011;24910;53.248;-6.134;2023-02-08T04:17:29;16.33;;;4.45;;
38683;SDS011;24910;53.248;-6.134;2023-02-08T04:19:58;15.35;;;3.90;;
38683;SDS011;24910;53.248;-6.134;2023-02-08T04:22:28;13.25;;;3.90;;
38683;SDS011;24910;53.248;-6.134;2023-02-08T04:24:58;16.70;;;3.95;;
38683;SDS011;24910;53.248;-6.134;2023-02-08T04:27:27;18.02;;;3.70;;
38683;SDS011;24910;53.248;-6.134;2023-02-08T04:29:56;17.73;;;3.55;;
38683;SDS011;24910;53.248;-6.134;2023-02-08T04:32:25;20.30;;;4.20;;
38683;SDS011;24910;53.248;-6.134;2023-02-08T04:34:55;11.30;;;3.33;;
38683;SDS011;24910;53.248;-6.134;2023-02-08T04:37:24;13.93;;;3.10;;
38683;SDS011;24910;53.248;-6.134;2023-02-08T04:39:54;14.23;;;3.42;;
38683;SDS011;24910;53.248;-6.134;2023-02-08T04:42:24;15.38;;;4.00;;
38683;SDS011;24910;53.248;-6.134;2023-02-08T04:44:53;10.05;;;3.45;;
38683;SDS011;24910;53.248;-6.134;2023-02-08T04:47:22;12.13;;;3.60;;
38683;SDS011;24910;53.248;-6.134;2023-02-08T04:49:52;11.55;;;3.13;;
38683;SDS011;24910;53.248;-6.134;2023-02-08T04:52:21;10.63;;;3.38;;
38683;SDS011;24910;53.248;-6.134;2023-02-08T04:54:50;16.42;;;3.40;;
38683;SDS011;24910;53.248;-6.134;2023-02-08T04:57:19;13.77;;;3.75;;
38683;SDS011;24910;53.248;-6.134;2023-02-08T04:59:49;13.45;;;3.78;;
38683;SDS011;24910;53.248;-6.134;2023-02-08T05:02:18;14.32;;;4.13;;
38683;SDS011;24910;53.248;-6.134;2023-02-08T05:04:47;12.48;;;3.80;;
38683;SDS011;24910;53.248;-6.134;2023-02-08T05:07:16;10.85;;;3.90;;
38683;SDS011;24910;53.248;-6.134;2023-02-08T05:09:45;12.77;;;3.60;;
38683;SDS011;24910;53.248;-6.134;2023-02-08T05:12:14;15.23;;;4.13;;
38683;SDS011;24910;53.248;-6.134;2023-02-08T05:14:44;13.07;;;4.00;;
38683;SDS011;24910;53.248;-6.134;2023-02-08T05:17:14;14.20;;;4.00;;
38683;SDS011;24910;53.248;-6.134;2023-02-08T05:19:43;13.25;;;4.47;;
38683;SDS011;24910;53.248;-6.134;2023-02-08T05:22:12;11.27;;;3.28;;
38683;SDS011;24910;53.248;-6.134;2023-02-08T05:24:42;11.50;;;3.30;;
38683;SDS011;24910;53.248;-6.134;2023-02-08T05:27:11;12.52;;;3.05;;
38683;SDS011;24910;53.248;-6.134;2023-02-08T05:29:40;8.77;;;2.83;;
38683;SDS011;24910;53.248;-6.134;2023-02-08T05:32:10;6.68;;;2.13;;
38683;SDS011;24910;53.248;-6.134;2023-02-08T05:34:41;6.38;;;1.80;;
38683;SDS011;24910;53.248;-6.134;2023-02-08T05:37:10;4.65;;;1.83;;
38683;SDS011;24910;53.248;-6.134;2023-02-08T05:39:40;4.78;;;1.52;;
38683;SDS011;24910;53.248;-6.134;2023-02-08T05:42:09;16.35;;;2.67;;
38683;SDS011;24910;53.248;-6.134;2023-02-08T05:44:38;6.22;;;1.90;;
38683;SDS011;24910;53.248;-6.134;2023-02-08T05:47:07;7.05;;;2.08;;
38683;SDS011;24910;53.248;-6.134;2023-02-08T05:49:36;8.35;;;2.13;;
38683;SDS011;24910;53.248;-6.134;2023-02-08T05:52:07;10.15;;;2.28;;
38683;SDS011;24910;53.248;-6.134;2023-02-08T05:54:36;8.57;;;2.33;;
38683;SDS011;24910;53.248;-6.134;2023-02-08T05:57:05;12.65;;;2.67;;
38683;SDS011;24910;53.248;-6.134;2023-02-08T05:59:34;13.07;;;2.60;;
38683;SDS011;24910;53.248;-6.134;2023-02-08T06:02:03;15.73;;;3.72;;
38683;SDS011;24910;53.248;-6.134;2023-02-08T06:04:32;16.10;;;2.72;;
38683;SDS011;24910;53.248;-6.134;2023-02-08T06:07:04;14.73;;;3.20;;
38683;SDS011;24910;53.248;-6.134;2023-02-08T06:09:35;13.25;;;3.25;;
38683;SDS011;24910;53.248;-6.134;2023-02-08T06:12:04;20.67;;;3.17;;
38683;SDS011;24910;53.248;-6.134;2023-02-08T06:14:33;15.40;;;3.60;;
38683;SDS011;24910;53.248;-6.134;2023-02-08T06:17:02;11.15;;;2.78;;
38683;SDS011;24910;53.248;-6.134;2023-02-08T06:19:31;16.67;;;2.42;;
38683;SDS011;24910;53.248;-6.134;2023-02-08T06:22:00;14.13;;;3.05;;
38683;SDS011;24910;53.248;-6.134;2023-02-08T06:24:31;8.15;;;2.30;;
38683;SDS011;24910;53.248;-6.134;2023-02-08T06:27:01;9.38;;;2.47;;
38683;SDS011;24910;53.248;-6.134;2023-02-08T06:29:30;9.63;;;3.05;;
38683;SDS011;24910;53.248;-6.134;2023-02-08T06:31:59;16.65;;;2.97;;
38683;SDS011;24910;53.248;-6.134;2023-02-08T06:34:29;10.02;;;2.97;;
38683;SDS011;24910;53.248;-6.134;2023-02-08T06:36:58;13.18;;;3.17;;
38683;SDS011;24910;53.248;-6.134;2023-02-08T06:39:28;12.20;;;2.78;;
38683;SDS011;24910;53.248;-6.134;2023-02-08T06:41:58;13.90;;;2.92;;
38683;SDS011;24910;53.248;-6.134;2023-02-08T06:44:27;18.90;;;3.25;;
38683;SDS011;24910;53.248;-6.134;2023-02-08T06:46:56;10.20;;;2.83;;
38683;SDS011;24910;53.248;-6.134;2023-02-08T06:49:25;14.85;;;3.30;;
38683;SDS011;24910;53.248;-6.134;2023-02-08T06:51:54;16.05;;;3.63;;
38683;SDS011;24910;53.248;-6.134;2023-02-08T06:54:24;13.38;;;3.28;;
38683;SDS011;24910;53.248;-6.134;2023-02-08T06:56:53;13.95;;;3.95;;
38683;SDS011;24910;53.248;-6.134;2023-02-08T06:59:23;11.77;;;3.70;;
38683;SDS011;24910;53.248;-6.134;2023-02-08T07:01:52;10.23;;;3.78;;
38683;SDS011;24910;53.248;-6.134;2023-02-08T07:04:21;16.02;;;3.40;;
38683;SDS011;24910;53.248;-6.134;2023-02-08T07:06:50;15.45;;;3.30;;
38683;SDS011;24910;53.248;-6.134;2023-02-08T07:09:19;13.05;;;3.20;;
38683;SDS011;24910;53.248;-6.134;2023-02-08T07:11:48;9.85;;;3.22;;
38683;SDS011;24910;53.248;-6.134;2023-02-08T07:14:18;16.17;;;3.55;;
38683;SDS011;24910;53.248;-6.134;2023-02-08T07:16:48;14.43;;;3.30;;
38683;SDS011;24910;53.248;-6.134;2023-02-08T07:19:17;15.68;;;3.40;;
38683;SDS011;24910;53.248;-6.134;2023-02-08T07:21:46;21.85;;;4.25;;
38683;SDS011;24910;53.248;-6.134;2023-02-08T07:24:16;10.45;;;3.30;;
38683;SDS011;24910;53.248;-6.134;2023-02-08T07:26:45;13.30;;;3.55;;
38683;SDS011;24910;53.248;-6.134;2023-02-08T07:29:14;16.52;;;4.10;;
38683;SDS011;24910;53.248;-6.134;2023-02-08T07:31:43;11.88;;;3.35;;
38683;SDS011;24910;53.248;-6.134;2023-02-08T07:34:14;13.88;;;3.80;;
38683;SDS011;24910;53.248;-6.134;2023-02-08T07:36:48;16.10;;;4.40;;
38683;SDS011;24910;53.248;-6.134;2023-02-08T07:39:17;16.33;;;3.78;;
38683;SDS011;24910;53.248;-6.134;2023-02-08T07:41:46;14.45;;;3.58;;
38683;SDS011;24910;53.248;-6.134;2023-02-08T07:44:15;16.42;;;3.63;;
38683;SDS011;24910;53.248;-6.134;2023-02-08T07:46:45;12.23;;;3.53;;
38683;SDS011;24910;53.248;-6.134;2023-02-08T07:49:15;14.73;;;3.70;;
38683;SDS011;24910;53.248;-6.134;2023-02-08T07:51:44;17.15;;;3.90;;
38683;SDS011;24910;53.248;-6.134;2023-02-08T07:54:13;11.75;;;3.40;;
38683;SDS011;24910;53.248;-6.134;2023-02-08T07:56:42;10.80;;;3.88;;
38683;SDS011;24910;53.248;-6.134;2023-02-08T07:59:11;9.60;;;3.17;;
38683;SDS011;24910;53.248;-6.134;2023-02-08T08:01:41;12.50;;;3.72;;
38683;SDS011;24910;53.248;-6.134;2023-02-08T08:04:10;11.32;;;3.55;;
38683;SDS011;24910;53.248;-6.134;2023-02-08T08:06:40;15.02;;;3.50;;
38683;SDS011;24910;53.248;-6.134;2023-02-08T08:09:11;13.85;;;4.50;;
38683;SDS011;24910;53.248;-6.134;2023-02-08T08:11:41;13.52;;;4.10;;
38683;SDS011;24910;53.248;-6.134;2023-02-08T08:14:10;15.63;;;4.05;;
38683;SDS011;24910;53.248;-6.134;2023-02-08T08:16:40;16.45;;;4.82;;
38683;SDS011;24910;53.248;-6.134;2023-02-08T08:19:09;17.00;;;4.50;;
38683;SDS011;24910;53.248;-6.134;2023-02-08T08:21:38;13.93;;;4.20;;
38683;SDS011;24910;53.248;-6.134;2023-02-08T08:24:09;16.15;;;6.53;;
38683;SDS011;24910;53.248;-6.134;2023-02-08T08:26:38;14.55;;;4.75;;
38683;SDS011;24910;53.248;-6.134;2023-02-08T08:29:07;18.50;;;6.90;;
38683;SDS011;24910;53.248;-6.134;2023-02-08T08:31:36;14.35;;;6.55;;
38683;SDS011;24910;53.248;-6.134;2023-02-08T08:34:05;14.65;;;4.95;;
38683;SDS011;24910;53.248;-6.134;2023-02-08T08:36:35;15.48;;;5.13;;
38683;SDS011;24910;53.248;-6.134;2023-02-08T08:39:05;15.77;;;4.00;;
38683;SDS011;24910;53.248;-6.134;2023-02-08T08:41:34;18.42;;;4.47;;
38683;SDS011;24910;53.248;-6.134;2023-02-08T08:44:04;18.42;;;3.85;;
38683;SDS011;24910;53.248;-6.134;2023-02-08T08:46:33;12.77;;;4.45;;
38683;SDS011;24910;53.248;-6.134;2023-02-08T08:49:02;11.18;;;4.07;;
38683;SDS011;24910;53.248;-6.134;2023-02-08T08:51:31;16.33;;;4.68;;
38683;SDS011;24910;53.248;-6.134;2023-02-08T08:54:01;15.43;;;3.72;;
38683;SDS011;24910;53.248;-6.134;2023-02-08T08:56:32;16.65;;;3.40;;
38683;SDS011;24910;53.248;-6.134;2023-02-08T08:59:01;10.02;;;3.60;;
38683;SDS011;24910;53.248;-6.134;2023-02-08T09:01:31;15.63;;;3.35;;
38683;SDS011;24910;53.248;-6.134;2023-02-08T09:04:00;19.38;;;3.08;;
38683;SDS011;24910;53.248;-6.134;2023-02-08T09:06:30;9.38;;;2.97;;
38683;SDS011;24910;53.248;-6.134;2023-02-08T09:08:59;8.90;;;2.40;;
38683;SDS011;24910;53.248;-6.134;2023-02-08T09:11:28;10.80;;;2.40;;
38683;SDS011;24910;53.248;-6.134;2023-02-08T09:14:02;22.13;;;3.05;;
38683;SDS011;24910;53.248;-6.134;2023-02-08T09:16:32;11.40;;;2.55;;
38683;SDS011;24910;53.248;-6.134;2023-02-08T09:19:01;12.30;;;2.47;;
38683;SDS011;24910;53.248;-6.134;2023-02-08T09:21:31;11.40;;;2.80;;
38683;SDS011;24910;53.248;-6.134;2023-02-08T09:24:01;10.75;;;2.15;;
38683;SDS011;24910;53.248;-6.134;2023-02-08T09:26:31;12.15;;;2.38;;
38683;SDS011;24910;53.248;-6.134;2023-02-08T09:29:01;13.40;;;2.28;;
38683;SDS011;24910;53.248;-6.134;2023-02-08T09:31:31;9.80;;;2.38;;
38683;SDS011;24910;53.248;-6.134;2023-02-08T09:34:02;14.80;;;2.47;;
38683;SDS011;24910;53.248;-6.134;2023-02-08T09:36:34;15.40;;;3.05;;
38683;SDS011;24910;53.248;-6.134;2023-02-08T09:41:40;11.50;;;1.95;;
38683;SDS011;24910;53.248;-6.134;2023-02-08T09:44:26;17.98;;;3.15;;
38683;SDS011;24910;53.248;-6.134;2023-02-08T09:47:02;12.65;;;2.22;;
38683;SDS011;24910;53.248;-6.134;2023-02-08T09:49:38;12.57;;;2.28;;
38683;SDS011;24910;53.248;-6.134;2023-02-08T09:52:17;10.20;;;2.50;;
38683;SDS011;24910;53.248;-6.134;2023-02-08T09:54:51;9.23;;;2.03;;
38683;SDS011;24910;53.248;-6.134;2023-02-08T09:57:27;11.80;;;2.13;;
38683;SDS011;24910;53.248;-6.134;2023-02-08T10:00:00;10.52;;;2.33;;
38683;SDS011;24910;53.248;-6.134;2023-02-08T10:02:34;10.57;;;2.40;;
38683;SDS011;24910;53.248;-6.134;2023-02-08T10:05:04;9.18;;;2.20;;
38683;SDS011;24910;53.248;-6.134;2023-02-08T10:07:38;13.70;;;2.40;;
38683;SDS011;24910;53.248;-6.134;2023-02-08T10:12:42;10.75;;;2.25;;
38683;SDS011;24910;53.248;-6.134;2023-02-08T10:15:23;13.23;;;2.15;;
38683;SDS011;24910;53.248;-6.134;2023-02-08T10:18:07;12.73;;;2.42;;
38683;SDS011;24910;53.248;-6.134;2023-02-08T10:20:54;11.00;;;3.20;;
38683;SDS011;24910;53.248;-6.134;2023-02-08T10:23:35;11.57;;;2.60;;
38683;SDS011;24910;53.248;-6.134;2023-02-08T10:26:16;9.02;;;2.45;;
38683;SDS011;24910;53.248;-6.134;2023-02-08T10:28:57;8.45;;;2.65;;
38683;SDS011;24910;53.248;-6.134;2023-02-08T10:34:37;12.30;;;2.38;;
38683;SDS011;24910;53.248;-6.134;2023-02-08T10:37:15;10.75;;;1.92;;
38683;SDS011;24910;53.248;-6.134;2023-02-08T10:39:46;14.73;;;2.20;;
38683;SDS011;24910;53.248;-6.134;2023-02-08T10:42:18;14.75;;;3.10;;
38683;SDS011;24910;53.248;-6.134;2023-02-08T10:44:51;17.58;;;2.88;;
38683;SDS011;24910;53.248;-6.134;2023-02-08T10:47:34;10.32;;;2.08;;
38683;SDS011;24910;53.248;-6.134;2023-02-08T10:50:12;15.32;;;2.50;;
38683;SDS011;24910;53.248;-6.134;2023-02-08T10:52:49;14.65;;;2.72;;
38683;SDS011;24910;53.248;-6.134;2023-02-08T10:55:19;13.15;;;2.30;;
38683;SDS011;24910;53.248;-6.134;2023-02-08T10:57:49;13.07;;;2.47;;
38683;SDS011;24910;53.248;-6.134;2023-02-08T11:00:25;15.55;;;2.33;;
38683;SDS011;24910;53.248;-6.134;2023-02-08T11:02:59;14.43;;;2.30;;
38683;SDS011;24910;53.248;-6.134;2023-02-08T11:05:31;11.07;;;2.15;;
38683;SDS011;24910;53.248;-6.134;2023-02-08T11:08:05;9.38;;;2.13;;
38683;SDS011;24910;53.248;-6.134;2023-02-08T11:10:36;14.13;;;2.85;;
38683;SDS011;24910;53.248;-6.134;2023-02-08T11:13:14;13.60;;;2.13;;
38683;SDS011;24910;53.248;-6.134;2023-02-08T11:15:45;13.55;;;2.15;;
38683;SDS011;24910;53.248;-6.134;2023-02-08T11:18:20;12.73;;;2.08;;
38683;SDS011;24910;53.248;-6.134;2023-02-08T11:20:52;18.38;;;2.10;;
38683;SDS011;24910;53.248;-6.134;2023-02-08T11:23:25;9.93;;;1.95;;
38683;SDS011;24910;53.248;-6.134;2023-02-08T11:26:11;9.13;;;2.17;;
38683;SDS011;24910;53.248;-6.134;2023-02-08T11:28:43;13.00;;;2.17;;
38683;SDS011;24910;53.248;-6.134;2023-02-08T11:31:26;11.43;;;2.30;;
38683;SDS011;24910;53.248;-6.134;2023-02-08T11:33:58;10.32;;;2.33;;
38683;SDS011;24910;53.248;-6.134;2023-02-08T11:36:29;10.13;;;2.17;;
38683;SDS011;24910;53.248;-6.134;2023-02-08T11:39:00;12.20;;;2.30;;
38683;SDS011;24910;53.248;-6.134;2023-02-08T11:41:31;14.13;;;2.28;;
38683;SDS011;24910;53.248;-6.134;2023-02-08T11:44:04;9.23;;;2.22;;
38683;SDS011;24910;53.248;-6.134;2023-02-08T11:49:10;12.45;;;2.92;;
38683;SDS011;24910;53.248;-6.134;2023-02-08T11:51:49;8.45;;;2.10;;
38683;SDS011;24910;53.248;-6.134;2023-02-08T11:54:32;11.23;;;2.42;;
38683;SDS011;24910;53.248;-6.134;2023-02-08T11:57:10;12.23;;;2.40;;
38683;SDS011;24910;53.248;-6.134;2023-02-08T11:59:42;8.32;;;1.63;;
38683;SDS011;24910;53.248;-6.134;2023-02-08T12:02:21;10.65;;;1.95;;
38683;SDS011;24910;53.248;-6.134;2023-02-08T12:04:57;10.27;;;2.63;;
38683;SDS011;24910;53.248;-6.134;2023-02-08T12:10:42;15.05;;;2.63;;
38683;SDS011;24910;53.248;-6.134;2023-02-08T12:13:27;12.45;;;2.85;;
38683;SDS011;24910;53.248;-6.134;2023-02-08T12:16:08;10.82;;;2.22;;
38683;SDS011;24910;53.248;-6.134;2023-02-08T12:18:47;13.85;;;2.65;;
38683;SDS011;24910;53.248;-6.134;2023-02-08T12:21:34;10.35;;;2.25;;
38683;SDS011;24910;53.248;-6.134;2023-02-08T12:24:12;9.90;;;2.33;;
38683;SDS011;24910;53.248;-6.134;2023-02-08T12:26:51;10.65;;;2.83;;
38683;SDS011;24910;53.248;-6.134;2023-02-08T12:29:35;9.80;;;2.47;;
38683;SDS011;24910;53.248;-6.134;2023-02-08T12:32:24;9.57;;;2.30;;
38683;SDS011;24910;53.248;-6.134;2023-02-08T12:38:25;12.85;;;2.70;;
38683;SDS011;24910;53.248;-6.134;2023-02-08T12:41:26;8.82;;;2.33;;
38683;SDS011;24910;53.248;-6.134;2023-02-08T12:44:00;8.98;;;1.95;;
38683;SDS011;24910;53.248;-6.134;2023-02-08T12:46:50;8.95;;;2.15;;
38683;SDS011;24910;53.248;-6.134;2023-02-08T12:49:35;11.90;;;2.65;;
38683;SDS011;24910;53.248;-6.134;2023-02-08T12:52:20;6.88;;;2.15;;
38683;SDS011;24910;53.248;-6.134;2023-02-08T12:55:02;7.80;;;2.55;;
38683;SDS011;24910;53.248;-6.134;2023-02-08T12:57:36;8.07;;;2.38;;
38683;SDS011;24910;53.248;-6.134;2023-02-08T13:00:14;9.70;;;2.50;;
38683;SDS011;24910;53.248;-6.134;2023-02-08T13:02:47;10.73;;;2.60;;
38683;SDS011;24910;53.248;-6.134;2023-02-08T13:05:25;8.32;;;2.25;;
38683;SDS011;24910;53.248;-6.134;2023-02-08T13:08:00;15.48;;;2.38;;
38683;SDS011;24910;53.248;-6.134;2023-02-08T13:10:37;7.82;;;2.42;;
38683;SDS011;24910;53.248;-6.134;2023-02-08T13:13:11;9.82;;;2.50;;
38683;SDS011;24910;53.248;-6.134;2023-02-08T13:15:44;8.25;;;2.20;;
38683;SDS011;24910;53.248;-6.134;2023-02-08T13:18:20;9.65;;;3.20;;
38683;SDS011;24910;53.248;-6.134;2023-02-08T13:20:53;6.78;;;2.60;;
38683;SDS011;24910;53.248;-6.134;2023-02-08T13:23:26;8.38;;;2.63;;
38683;SDS011;24910;53.248;-6.134;2023-02-08T13:26:05;12.82;;;3.03;;
38683;SDS011;24910;53.248;-6.134;2023-02-08T13:28:43;10.77;;;2.50;;
38683;SDS011;24910;53.248;-6.134;2023-02-08T13:31:16;10.52;;;2.25;;
38683;SDS011;24910;53.248;-6.134;2023-02-08T13:33:48;6.05;;;2.00;;
38683;SDS011;24910;53.248;-6.134;2023-02-08T13:36:31;7.03;;;1.90;;
38683;SDS011;24910;53.248;-6.134;2023-02-08T13:39:03;6.68;;;1.80;;
38683;SDS011;24910;53.248;-6.134;2023-02-08T13:41:35;6.05;;;1.60;;
38683;SDS011;24910;53.248;-6.134;2023-02-08T13:44:05;4.55;;;1.25;;
38683;SDS011;24910;53.248;-6.134;2023-02-08T13:46:36;4.15;;;1.50;;
38683;SDS011;24910;53.248;-6.134;2023-02-08T13:58:36;6.30;;;1.63;;
38683;SDS011;24910;53.248;-6.134;2023-02-08T14:01:30;9.50;;;2.08;;
38683;SDS011;24910;53.248;-6.134;2023-02-08T14:07:00;6.22;;;1.67;;
38683;SDS011;24910;53.248;-6.134;2023-02-08T14:09:40;5.22;;;1.77;;
38683;SDS011;24910;53.248;-6.134;2023-02-08T14:12:22;3.53;;;1.35;;
38683;SDS011;24910;53.248;-6.134;2023-02-08T14:17:55;7.88;;;1.98;;
38683;SDS011;24910;53.248;-6.134;2023-02-08T14:20:27;5.00;;;1.52;;
38683;SDS011;24910;53.248;-6.134;2023-02-08T14:23:00;4.97;;;1.95;;
38683;SDS011;24910;53.248;-6.134;2023-02-08T14:25:39;7.63;;;1.70;;
38683;SDS011;24910;53.248;-6.134;2023-02-08T14:28:24;5.55;;;1.42;;
38683;SDS011;24910;53.248;-6.134;2023-02-08T14:30:58;10.80;;;1.90;;
38683;SDS011;24910;53.248;-6.134;2023-02-08T14:33:32;7.10;;;1.65;;
38683;SDS011;24910;53.248;-6.134;2023-02-08T14:36:06;6.28;;;1.98;;
38683;SDS011;24910;53.248;-6.134;2023-02-08T14:38:52;9.93;;;2.47;;
38683;SDS011;24910;53.248;-6.134;2023-02-08T14:41:43;6.90;;;1.48;;
38683;SDS011;24910;53.248;-6.134;2023-02-08T14:50:21;4.40;;;1.60;;
38683;SDS011;24910;53.248;-6.134;2023-02-08T14:52:57;5.57;;;1.55;;
38683;SDS011;24910;53.248;-6.134;2023-02-08T14:55:36;5.85;;;1.70;;
38683;SDS011;24910;53.248;-6.134;2023-02-08T14:58:13;4.90;;;1.35;;
38683;SDS011;24910;53.248;-6.134;2023-02-08T15:00:50;5.45;;;1.60;;
38683;SDS011;24910;53.248;-6.134;2023-02-08T15:03:22;5.55;;;1.45;;
38683;SDS011;24910;53.248;-6.134;2023-02-08T15:06:00;6.57;;;1.80;;
38683;SDS011;24910;53.248;-6.134;2023-02-08T15:08:48;7.38;;;1.75;;
38683;SDS011;24910;53.248;-6.134;2023-02-08T15:11:19;7.10;;;1.50;;
38683;SDS011;24910;53.248;-6.134;2023-02-08T15:13:51;7.28;;;1.77;;
38683;SDS011;24910;53.248;-6.134;2023-02-08T15:16:26;7.35;;;1.40;;
38683;SDS011;24910;53.248;-6.134;2023-02-08T15:19:02;10.10;;;1.77;;
38683;SDS011;24910;53.248;-6.134;2023-02-08T15:21:35;8.73;;;2.30;;
38683;SDS011;24910;53.248;-6.134;2023-02-08T15:24:12;6.03;;;2.10;;
38683;SDS011;24910;53.248;-6.134;2023-02-08T15:26:43;9.05;;;2.20;;
38683;SDS011;24910;53.248;-6.134;2023-02-08T15:29:17;8.32;;;2.80;;
38683;SDS011;24910;53.248;-6.134;2023-02-08T15:31:56;8.23;;;2.15;;
38683;SDS011;24910;53.248;-6.134;2023-02-08T15:34:27;8.70;;;2.53;;
38683;SDS011;24910;53.248;-6.134;2023-02-08T15:36:56;13.32;;;3.20;;
38683;SDS011;24910;53.248;-6.134;2023-02-08T15:39:31;8.15;;;2.75;;
38683;SDS011;24910;53.248;-6.134;2023-02-08T15:42:04;12.70;;;2.50;;
38683;SDS011;24910;53.248;-6.134;2023-02-08T15:44:42;12.00;;;2.40;;
38683;SDS011;24910;53.248;-6.134;2023-02-08T15:47:12;7.97;;;2.30;;
38683;SDS011;24910;53.248;-6.134;2023-02-08T15:49:47;8.30;;;2.97;;